Time;durP1;ratioP1;P1;durP2;ratioP2;P2;SDS_P1;SDS_P2;PMS_P1;PMS_P2;Temp;Humidity;BMP_temperature;BMP_pressure;BME280_temperature;BME280_humidity;BME280_pressure;Samples;Min_cycle;Max_cycle;Signal;HPM_P1;HPM_P2
2020/12/31 00:01:41;;;;;;;22.73;11.85;;;;;;;1.00;89.49;96314.44;4937847;28;20030;-78
2020/12/31 00:04:06;;;;;;;21.30;11.75;;;;;;;1.08;89.88;96323.66;4930713;29;20066;-77
2020/12/31 00:06:34;;;;;;;23.17;12.32;;;;;;;1.01;89.66;96318.59;4918022;29;20110;-77
2020/12/31 00:09:02;;;;;;;23.70;11.38;;;;;;;1.09;89.82;96322.66;4931067;29;20358;-77
2020/12/31 00:11:28;;;;;;;23.52;12.48;;;;;;;1.05;89.74;96314.59;4930397;29;20039;-80
2020/12/31 00:13:53;;;;;;;22.50;10.90;;;;;;;1.15;89.60;96316.72;4901405;29;20102;-77
2020/12/31 00:16:19;;;;;;;20.52;11.25;;;;;;;1.18;89.07;96318.88;4945576;29;20038;-79
2020/12/31 00:18:45;;;;;;;18.75;9.60;;;;;;;1.09;89.50;96313.19;4927373;29;20031;-77
2020/12/31 00:21:11;;;;;;;21.08;10.23;;;;;;;1.14;89.12;96310.03;4926750;29;20028;-78
2020/12/31 00:23:36;;;;;;;21.20;10.60;;;;;;;1.11;89.24;96302.75;4942378;29;20043;-80
2020/12/31 00:26:04;;;;;;;17.83;9.18;;;;;;;1.10;89.55;96291.72;4938212;29;20166;-77
2020/12/31 00:28:30;;;;;;;19.30;9.77;;;;;;;0.98;89.63;96293.34;4919333;29;20119;-77
2020/12/31 00:30:56;;;;;;;21.52;10.63;;;;;;;1.09;89.82;96294.47;4930712;29;20595;-78
2020/12/31 00:33:23;;;;;;;21.27;10.25;;;;;;;1.05;89.48;96288.19;4930340;29;20134;-78
2020/12/31 00:35:53;;;;;;;19.88;10.30;;;;;;;1.02;89.72;96291.94;4929109;29;20066;-77
2020/12/31 00:38:19;;;;;;;15.88;8.52;;;;;;;1.11;89.17;96295.84;4930182;29;20214;-80
2020/12/31 00:40:45;;;;;;;18.30;8.65;;;;;;;1.12;88.85;96297.41;4929623;29;20031;-79
2020/12/31 00:43:11;;;;;;;17.08;9.20;;;;;;;1.07;89.42;96291.34;4940895;29;20340;-80
2020/12/31 00:45:36;;;;;;;16.73;8.65;;;;;;;0.99;89.13;96289.00;4911162;29;20067;-80
2020/12/31 00:48:03;;;;;;;15.60;8.85;;;;;;;1.07;88.58;96288.78;4909591;29;20039;-77
2020/12/31 00:50:28;;;;;;;16.85;8.50;;;;;;;0.99;89.06;96291.56;4933631;29;20041;-77
2020/12/31 00:52:54;;;;;;;17.27;8.52;;;;;;;0.97;89.31;96291.00;4921743;29;20031;-78
2020/12/31 00:55:20;;;;;;;16.48;8.07;;;;;;;0.90;89.36;96281.53;4933260;29;20430;-78
2020/12/31 00:57:47;;;;;;;16.67;9.18;;;;;;;0.93;88.67;96275.25;4911729;29;20039;-77
2020/12/31 01:00:13;;;;;;;16.40;8.10;;;;;;;0.92;89.13;96273.66;4928921;29;20039;-78
2020/12/31 01:02:39;;;;;;;17.48;8.60;;;;;;;0.82;88.98;96266.41;4938143;28;20054;-77
2020/12/31 01:05:09;;;;;;;14.98;7.82;;;;;;;0.87;89.00;96266.56;4943872;28;20046;-77
2020/12/31 01:07:35;;;;;;;14.40;7.30;;;;;;;0.91;88.83;96278.00;4966930;28;20042;-78
2020/12/31 01:10:04;;;;;;;16.27;8.10;;;;;;;0.85;88.74;96263.44;4950791;29;20039;-80
2020/12/31 01:12:30;;;;;;;13.60;7.60;;;;;;;0.84;89.39;96271.31;4937565;29;20035;-80
2020/12/31 01:14:56;;;;;;;13.43;7.45;;;;;;;0.80;88.68;96265.81;4948394;29;20062;-78
2020/12/31 01:17:24;;;;;;;13.10;7.28;;;;;;;0.75;88.50;96263.09;4927033;29;20767;-78
2020/12/31 01:19:50;;;;;;;14.45;7.85;;;;;;;0.77;88.67;96258.53;4966245;28;20026;-80
2020/12/31 01:22:16;;;;;;;15.00;7.60;;;;;;;0.85;88.22;96272.91;4951433;29;20478;-78
2020/12/31 01:24:41;;;;;;;13.45;7.10;;;;;;;0.77;88.64;96266.22;4942146;29;20031;-80
2020/12/31 01:27:07;;;;;;;13.45;6.55;;;;;;;0.80;88.85;96270.94;4944365;28;20035;-78
2020/12/31 01:29:33;;;;;;;13.00;7.43;;;;;;;0.69;89.13;96264.69;4950185;28;20035;-78
2020/12/31 01:31:59;;;;;;;11.77;6.47;;;;;;;0.74;88.48;96258.97;4950654;28;20313;-77
2020/12/31 01:34:25;;;;;;;11.90;6.78;;;;;;;0.72;89.28;96253.25;4952114;28;20039;-80
2020/12/31 01:36:54;;;;;;;12.73;6.45;;;;;;;0.69;88.74;96248.56;4937047;28;20043;-80
2020/12/31 01:39:20;;;;;;;12.45;6.50;;;;;;;0.72;88.86;96248.13;4932674;29;20047;-78
2020/12/31 01:41:47;;;;;;;11.65;6.43;;;;;;;0.77;88.49;96244.97;4952411;28;20509;-77
2020/12/31 01:44:14;;;;;;;11.95;5.75;;;;;;;0.69;87.75;96240.88;4953054;28;20034;-77
2020/12/31 01:46:44;;;;;;;10.60;5.88;;;;;;;0.61;88.23;96241.88;4951284;28;20089;-77
2020/12/31 01:49:11;;;;;;;10.65;5.20;;;;;;;0.48;89.02;96237.59;4970455;28;20035;-80
2020/12/31 01:51:39;;;;;;;11.40;5.80;;;;;;;0.50;88.58;96235.63;4954688;28;20042;-80
2020/12/31 01:54:05;;;;;;;11.60;5.90;;;;;;;0.47;88.39;96227.56;4948955;29;20501;-80
2020/12/31 01:56:32;;;;;;;9.00;4.93;;;;;;;0.47;88.31;96225.78;4950780;28;20238;-80
2020/12/31 01:58:59;;;;;;;9.25;5.43;;;;;;;0.47;88.88;96230.91;4937728;28;20333;-79
2020/12/31 02:01:25;;;;;;;8.90;4.88;;;;;;;0.43;89.15;96229.75;4957886;28;20042;-79
2020/12/31 02:03:53;;;;;;;7.78;4.10;;;;;;;0.52;89.08;96237.97;4945602;28;20529;-79
2020/12/31 02:06:20;;;;;;;8.35;4.72;;;;;;;0.52;88.92;96233.63;4946838;29;20047;-79
2020/12/31 02:08:47;;;;;;;9.15;4.38;;;;;;;0.44;88.46;96233.09;4930923;29;20123;-79
2020/12/31 02:11:14;;;;;;;9.43;4.53;;;;;;;0.42;88.59;96230.72;4948294;28;20050;-79
2020/12/31 02:13:44;;;;;;;8.68;4.22;;;;;;;0.39;89.08;96231.13;4954629;28;20146;-79
2020/12/31 02:16:14;;;;;;;7.90;3.72;;;;;;;0.41;88.71;96221.44;4968305;28;20031;-79
2020/12/31 02:18:55;;;;;;;7.65;4.43;;;;;;;0.30;88.73;96222.09;4952066;28;20027;-80
2020/12/31 02:21:47;;;;;;;8.07;4.15;;;;;;;0.40;88.13;96222.47;4937665;28;20038;-79
2020/12/31 02:24:14;;;;;;;8.55;4.22;;;;;;;0.36;88.36;96214.41;4949110;28;20074;-79
2020/12/31 02:26:40;;;;;;;7.55;3.65;;;;;;;0.33;88.33;96219.91;4939785;29;20368;-80
2020/12/31 02:29:09;;;;;;;7.10;3.90;;;;;;;0.29;88.52;96216.22;4968560;28;20057;-79
2020/12/31 02:31:36;;;;;;;7.05;3.95;;;;;;;0.26;88.35;96223.47;4968655;28;20027;-79
2020/12/31 02:34:03;;;;;;;6.57;3.55;;;;;;;0.29;88.39;96225.63;4964557;28;20027;-79
2020/12/31 02:36:30;;;;;;;5.93;3.47;;;;;;;0.24;88.34;96228.81;4954832;28;20447;-79
2020/12/31 02:39:03;;;;;;;6.40;3.10;;;;;;;0.19;88.69;96220.97;4949488;28;20023;-79
2020/12/31 02:41:29;;;;;;;5.15;2.60;;;;;;;0.25;88.34;96221.94;4970104;28;20548;-79
2020/12/31 02:43:56;;;;;;;5.40;2.75;;;;;;;0.20;88.38;96227.63;4972013;28;20489;-79
2020/12/31 02:46:22;;;;;;;4.45;2.55;;;;;;;0.18;88.42;96217.59;4955238;28;20049;-79
2020/12/31 02:48:49;;;;;;;4.70;2.78;;;;;;;0.05;89.09;96222.75;4953917;28;20552;-79
2020/12/31 02:51:15;;;;;;;4.75;2.83;;;;;;;-0.06;88.83;96205.47;4942910;29;20028;-79
2020/12/31 02:53:40;;;;;;;4.55;2.60;;;;;;;-0.10;89.23;96204.31;4967760;28;20134;-79
2020/12/31 02:56:15;;;;;;;6.90;2.67;;;;;;;-0.18;89.31;96202.75;4949279;28;20114;-79
2020/12/31 02:58:40;;;;;;;5.15;2.55;;;;;;;-0.14;89.44;96201.34;4923028;28;20038;-79
2020/12/31 03:01:07;;;;;;;4.32;2.50;;;;;;;-0.08;89.43;96197.22;4944934;28;20066;-79
2020/12/31 03:03:34;;;;;;;4.13;1.95;;;;;;;-0.06;88.74;96202.91;4966976;28;20090;-79
2020/12/31 03:06:00;;;;;;;4.28;2.28;;;;;;;0.01;88.57;96201.13;4967358;28;20554;-79
2020/12/31 03:08:26;;;;;;;4.38;2.20;;;;;;;0.03;88.47;96203.47;4952210;29;20114;-79
2020/12/31 03:10:54;;;;;;;4.03;1.98;;;;;;;0.10;88.72;96204.25;4951036;29;20031;-79
2020/12/31 03:13:23;;;;;;;5.57;2.65;;;;;;;0.09;88.82;96206.03;4971535;28;20035;-79
2020/12/31 03:15:58;;;;;;;5.35;2.35;;;;;;;0.01;88.68;96203.69;4971272;28;20026;-79
2020/12/31 03:18:25;;;;;;;3.72;1.98;;;;;;;-0.02;88.60;96196.41;4942707;28;20070;-80
2020/12/31 03:20:51;;;;;;;4.85;2.30;;;;;;;-0.02;88.44;96196.41;4948503;29;20051;-79
2020/12/31 03:23:18;;;;;;;4.68;2.30;;;;;;;-0.04;88.19;96188.13;4967456;28;20488;-79
2020/12/31 03:25:44;;;;;;;4.38;2.22;;;;;;;-0.05;88.38;96186.59;4918878;29;20073;-79
2020/12/31 03:28:13;;;;;;;6.18;2.50;;;;;;;-0.10;88.99;96183.84;4954362;28;20106;-79
2020/12/31 03:30:40;;;;;;;4.47;2.45;;;;;;;-0.05;88.91;96189.16;4919392;29;20035;-79
2020/12/31 03:33:05;;;;;;;6.18;2.35;;;;;;;-0.03;88.65;96182.81;4925682;29;20028;-79
2020/12/31 03:35:33;;;;;;;4.60;2.22;;;;;;;-0.02;88.23;96178.47;4965503;28;20555;-79
2020/12/31 03:37:59;;;;;;;5.82;3.00;;;;;;;-0.03;88.52;96174.38;4932413;29;20383;-79
2020/12/31 03:40:26;;;;;;;5.40;2.72;;;;;;;-0.04;89.11;96160.78;4965528;28;20024;-79
2020/12/31 03:42:51;;;;;;;5.00;2.70;;;;;;;-0.03;88.33;96162.34;4938080;28;20038;-79
2020/12/31 03:45:16;;;;;;;5.00;2.42;;;;;;;-0.09;89.14;96165.72;4954090;28;20031;-79
2020/12/31 03:47:42;;;;;;;6.25;3.47;;;;;;;0.03;88.18;96155.63;4954315;28;20461;-79
2020/12/31 03:50:08;;;;;;;4.85;2.92;;;;;;;0.00;88.37;96143.28;4945725;28;20042;-79
2020/12/31 03:52:34;;;;;;;4.90;2.78;;;;;;;0.08;88.46;96150.69;4938271;28;20026;-79
2020/12/31 03:55:00;;;;;;;3.92;2.17;;;;;;;0.07;88.31;96144.03;4964479;28;20414;-79
2020/12/31 03:57:26;;;;;;;4.38;2.60;;;;;;;0.17;88.07;96148.69;4937044;29;20031;-79
2020/12/31 03:59:53;;;;;;;5.70;3.15;;;;;;;0.11;86.87;96145.19;4935029;29;20372;-79
2020/12/31 04:02:19;;;;;;;5.40;2.65;;;;;;;0.16;87.17;96136.91;4961041;28;20126;-79
2020/12/31 04:04:45;;;;;;;5.78;3.13;;;;;;;0.16;87.45;96137.69;4953389;28;20114;-79
2020/12/31 04:07:10;;;;;;;6.30;2.78;;;;;;;0.09;87.65;96120.78;4944086;29;20257;-79
2020/12/31 04:09:36;;;;;;;6.13;2.60;;;;;;;0.06;87.75;96121.97;4944559;29;20035;-79
2020/12/31 04:12:04;;;;;;;6.85;2.90;;;;;;;0.06;86.93;96119.41;4929897;29;20118;-79
2020/12/31 04:14:30;;;;;;;5.40;2.55;;;;;;;0.03;87.64;96122.38;4952071;29;20042;-79
2020/12/31 04:16:57;;;;;;;4.82;2.80;;;;;;;0.11;87.20;96122.13;4927510;29;20031;-79
2020/12/31 04:19:23;;;;;;;6.78;3.45;;;;;;;0.06;87.63;96116.06;4950874;29;20537;-79
2020/12/31 04:21:48;;;;;;;4.15;2.60;;;;;;;0.11;87.81;96119.59;4937843;28;20134;-79
2020/12/31 04:24:14;;;;;;;6.80;3.53;;;;;;;-0.03;87.36;96110.41;4949005;28;20035;-79
2020/12/31 04:26:40;;;;;;;4.95;3.13;;;;;;;0.00;87.19;96112.56;4940681;29;20489;-79
2020/12/31 04:29:05;;;;;;;4.90;2.90;;;;;;;-0.02;86.90;96104.28;4950471;29;20058;-79
2020/12/31 04:31:31;;;;;;;5.18;3.08;;;;;;;0.04;86.64;96093.25;4951736;29;20090;-79
2020/12/31 04:33:57;;;;;;;5.97;3.05;;;;;;;0.01;86.58;96103.09;4915963;29;20099;-79
2020/12/31 04:36:22;;;;;;;6.38;2.92;;;;;;;0.03;86.63;96101.91;4949947;29;20118;-79
2020/12/31 04:38:48;;;;;;;5.18;2.90;;;;;;;0.06;85.73;96098.16;4964236;28;20035;-78
2020/12/31 04:41:14;;;;;;;7.45;3.03;;;;;;;0.02;86.35;96099.53;4944558;28;20094;-79
2020/12/31 04:43:39;;;;;;;5.10;3.00;;;;;;;0.01;86.35;96103.88;4937734;28;20465;-79
2020/12/31 04:46:09;;;;;;;6.60;2.95;;;;;;;-0.02;86.07;96107.66;4970375;28;20035;-78
2020/12/31 04:48:39;;;;;;;5.25;3.00;;;;;;;-0.09;86.39;96103.53;4926597;28;20303;-78
2020/12/31 04:51:10;;;;;;;6.55;2.70;;;;;;;-0.11;86.45;96102.94;4950079;29;20049;-79
2020/12/31 04:53:38;;;;;;;6.03;2.70;;;;;;;-0.12;87.40;96093.69;4950239;29;20039;-79
2020/12/31 04:56:04;;;;;;;6.13;3.00;;;;;;;-0.07;86.64;96096.44;4925928;29;20039;-79
2020/12/31 04:58:29;;;;;;;4.78;3.00;;;;;;;-0.10;86.54;96091.75;4915475;29;20027;-79
2020/12/31 05:00:55;;;;;;;4.82;3.35;;;;;;;-0.07;87.17;96091.31;4942782;29;20027;-79
2020/12/31 05:03:21;;;;;;;5.00;2.75;;;;;;;-0.04;87.19;96096.81;4943133;29;20126;-78
2020/12/31 05:05:50;;;;;;;5.18;3.17;;;;;;;-0.18;87.66;96089.41;4950892;29;20146;-78
2020/12/31 05:08:17;;;;;;;4.38;2.97;;;;;;;-0.21;87.33;96086.28;4949945;29;20038;-79
2020/12/31 05:10:52;;;;;;;5.60;2.78;;;;;;;-0.20;87.13;96081.94;4946020;29;20039;-79
2020/12/31 05:13:17;;;;;;;4.28;3.00;;;;;;;-0.22;88.17;96083.91;4948846;29;20043;-79
2020/12/31 05:15:43;;;;;;;5.40;2.78;;;;;;;-0.27;87.25;96083.72;4948910;29;20055;-78
2020/12/31 05:18:20;;;;;;;4.50;2.65;;;;;;;-0.25;87.42;96082.53;4956780;28;20042;-78
2020/12/31 05:20:57;;;;;;;3.70;2.60;;;;;;;-0.18;87.57;96084.28;4971004;28;20058;-78
2020/12/31 05:23:26;;;;;;;4.68;2.70;;;;;;;-0.20;86.76;96071.69;4938722;28;20557;-78
2020/12/31 05:25:53;;;;;;;4.90;2.58;;;;;;;-0.18;86.74;96074.06;4946122;28;20547;-78
2020/12/31 05:28:31;;;;;;;4.78;2.92;;;;;;;-0.06;85.49;96078.31;4941711;28;20039;-78
2020/12/31 05:31:01;;;;;;;4.15;2.30;;;;;;;0.04;85.93;96077.13;4931330;29;20026;-78
2020/12/31 05:33:36;;;;;;;4.57;2.65;;;;;;;-0.20;86.43;96077.59;4957943;28;20072;-79
2020/12/31 05:36:16;;;;;;;3.97;2.38;;;;;;;-0.20;86.78;96077.59;4925570;28;20027;-79
2020/12/31 05:39:06;;;;;;;4.28;2.30;;;;;;;-0.19;86.82;96078.38;4967861;28;20194;-78
2020/12/31 05:41:33;;;;;;;5.80;2.45;;;;;;;-0.15;86.44;96071.09;4956370;28;20526;-79
2020/12/31 05:44:05;;;;;;;3.92;2.50;;;;;;;-0.21;87.19;96068.38;4940952;28;20101;-78
2020/12/31 05:46:31;;;;;;;4.65;3.03;;;;;;;-0.11;86.68;96070.47;4935263;29;20032;-79
2020/12/31 05:49:01;;;;;;;5.68;2.95;;;;;;;-0.12;86.21;96068.09;4956830;28;20043;-78
2020/12/31 05:51:31;;;;;;;6.43;2.70;;;;;;;-0.10;86.66;96064.38;4974035;28;20047;-79
2020/12/31 05:54:08;;;;;;;3.63;2.25;;;;;;;-0.03;86.08;96070.25;4937261;29;20033;-79
2020/12/31 05:56:35;;;;;;;5.70;3.10;;;;;;;-0.11;86.49;96072.25;4944470;29;20062;-78
2020/12/31 05:59:23;;;;;;;3.60;2.28;;;;;;;-0.23;86.79;96072.09;4946965;29;20427;-78
2020/12/31 06:02:02;;;;;;;5.40;2.30;;;;;;;-0.14;86.50;96075.22;4967918;28;20035;-79
2020/12/31 06:04:31;;;;;;;4.43;2.53;;;;;;;-0.05;86.48;96076.56;4967599;28;20050;-79
2020/12/31 06:07:04;;;;;;;6.18;3.47;;;;;;;-0.04;85.46;96086.56;4952659;28;20442;-79
2020/12/31 06:09:31;;;;;;;6.03;3.03;;;;;;;-0.07;86.46;96081.06;4938793;29;20118;-79
2020/12/31 06:12:02;;;;;;;4.30;2.63;;;;;;;0.02;86.43;96079.88;4951776;29;20043;-79
2020/12/31 06:14:31;;;;;;;7.18;3.45;;;;;;;0.03;86.07;96088.31;4952873;29;20023;-79
2020/12/31 06:16:59;;;;;;;4.70;3.03;;;;;;;-0.03;86.96;96090.72;4951896;29;20031;-79
2020/12/31 06:19:32;;;;;;;6.57;3.60;;;;;;;-0.08;87.84;96079.53;4947603;29;20098;-79
2020/12/31 06:22:22;;;;;;;5.85;3.30;;;;;;;-0.14;87.59;96088.00;4951910;29;20027;-80
2020/12/31 06:24:57;;;;;;;7.45;3.65;;;;;;;-0.09;87.99;96083.06;4951122;29;20184;-79
2020/12/31 06:27:31;;;;;;;6.65;3.58;;;;;;;-0.06;88.07;96074.97;4921861;29;20095;-79
2020/12/31 06:29:58;;;;;;;7.38;3.53;;;;;;;-0.05;88.10;96084.25;4948048;29;20213;-79
2020/12/31 06:32:24;;;;;;;6.82;3.75;;;;;;;-0.11;88.92;96082.47;4951807;29;20479;-79
2020/12/31 06:34:50;;;;;;;7.20;3.72;;;;;;;-0.17;89.35;96085.84;4946084;29;20042;-79
2020/12/31 06:37:15;;;;;;;8.73;3.90;;;;;;;-0.17;88.99;96083.28;4933252;29;20035;-79
2020/12/31 06:39:41;;;;;;;6.13;3.55;;;;;;;-0.20;89.13;96076.81;4954281;29;20042;-79
2020/12/31 06:42:07;;;;;;;6.10;3.60;;;;;;;-0.22;89.56;96069.34;4920916;29;20183;-79
2020/12/31 06:44:33;;;;;;;7.70;4.07;;;;;;;-0.10;89.87;96073.84;4952202;29;20133;-79
2020/12/31 06:46:59;;;;;;;8.43;4.63;;;;;;;-0.10;89.17;96071.28;4936851;28;20122;-78
2020/12/31 06:49:49;;;;;;;7.18;3.97;;;;;;;-0.14;89.73;96067.53;4964749;28;20046;-79
2020/12/31 06:52:23;;;;;;;8.70;4.53;;;;;;;-0.20;89.49;96067.34;4937574;29;20031;-79
2020/12/31 06:54:49;;;;;;;8.55;5.18;;;;;;;-0.18;89.42;96056.94;4936358;29;20372;-79
2020/12/31 06:57:35;;;;;;;7.03;4.32;;;;;;;-0.28;89.90;96064.25;4943347;29;20549;-79
2020/12/31 07:00:01;;;;;;;8.98;5.25;;;;;;;-0.18;90.00;96059.47;4939246;29;20050;-79
2020/12/31 07:02:42;;;;;;;10.30;5.22;;;;;;;-0.30;90.41;96061.13;4943025;28;20047;-80
2020/12/31 07:05:18;;;;;;;9.93;4.97;;;;;;;-0.32;90.34;96053.63;4946595;29;20069;-80
2020/12/31 07:07:45;;;;;;;8.15;4.60;;;;;;;-0.30;90.36;96041.44;4947883;29;20031;-80
2020/12/31 07:10:11;;;;;;;9.23;4.78;;;;;;;-0.28;90.56;96043.78;4929078;29;20364;-79
2020/12/31 07:12:39;;;;;;;7.90;4.97;;;;;;;-0.28;90.19;96048.91;4935218;29;20068;-80
2020/12/31 07:15:06;;;;;;;10.82;5.13;;;;;;;-0.31;90.93;96047.53;4950882;29;20202;-79
2020/12/31 07:17:34;;;;;;;7.55;4.18;;;;;;;-0.28;90.45;96036.88;4951675;29;20510;-79
2020/12/31 07:20:00;;;;;;;8.77;4.78;;;;;;;-0.31;90.84;96042.44;4941072;29;20038;-80
2020/12/31 07:22:28;;;;;;;7.32;4.57;;;;;;;-0.35;90.63;96043.81;4951601;29;20039;-79
2020/12/31 07:25:13;;;;;;;12.95;5.10;;;;;;;-0.31;90.73;96042.44;4944721;29;20151;-79
2020/12/31 07:27:39;;;;;;;;;;;;;;;-0.29;90.48;96037.09;4948913;29;20035;-81
2020/12/31 07:30:08;;;;;;;8.10;4.53;;;;;;;-0.31;90.64;96033.94;4939371;29;20386;-80
2020/12/31 07:33:00;;;;;;;9.70;4.47;;;;;;;-0.38;90.78;96036.53;4946101;29;20251;-81
2020/12/31 07:35:29;;;;;;;8.05;4.10;;;;;;;-0.24;90.64;96039.81;4951398;29;20039;-79
2020/12/31 07:37:56;;;;;;;7.63;4.47;;;;;;;-0.23;90.56;96031.94;4952324;29;20035;-80
2020/12/31 07:40:51;;;;;;;7.47;4.50;;;;;;;-0.39;90.05;96032.44;4910747;29;20020;-79
2020/12/31 07:43:18;;;;;;;;;;;;;;;-0.33;90.64;96036.72;4944209;29;20043;-79
2020/12/31 07:45:54;;;;;;;8.38;4.05;;;;;;;-0.26;90.75;96034.13;4944177;28;20005;-81
2020/12/31 07:48:20;;;;;;;8.45;4.68;;;;;;;-0.21;90.55;96037.66;4935273;29;20109;-79
2020/12/31 07:50:53;;;;;;;9.05;4.32;;;;;;;-0.14;89.67;96024.81;4950930;29;20031;-80
2020/12/31 07:53:19;;;;;;;6.97;3.85;;;;;;;-0.04;89.68;96026.94;4946729;29;20031;-79
2020/12/31 07:55:47;;;;;;;7.57;4.05;;;;;;;-0.31;90.21;96013.50;4943374;29;20043;-79
2020/12/31 07:58:15;;;;;;;10.30;4.40;;;;;;;-0.38;90.92;96023.75;4958692;28;20131;-79
2020/12/31 08:00:41;;;;;;;7.88;4.45;;;;;;;-0.27;91.29;96017.22;4935877;29;20031;-79
2020/12/31 08:03:08;;;;;;;7.28;4.40;;;;;;;-0.23;90.67;96024.28;4925716;29;20061;-79
2020/12/31 08:05:34;;;;;;;7.32;3.88;;;;;;;-0.35;90.52;96018.22;4944555;29;20031;-80
2020/12/31 08:08:00;;;;;;;8.40;4.43;;;;;;;-0.28;91.09;96034.34;4943244;29;20031;-81
2020/12/31 08:10:27;;;;;;;8.15;4.43;;;;;;;-0.29;90.51;96027.66;4951231;29;20035;-80
2020/12/31 08:12:57;;;;;;;6.90;3.92;;;;;;;-0.20;90.49;96021.31;4934406;29;20035;-80
2020/12/31 08:15:24;;;;;;;7.72;4.20;;;;;;;-0.22;91.08;96033.53;4936521;28;20039;-78
2020/12/31 08:17:50;;;;;;;7.18;4.15;;;;;;;-0.19;90.26;96027.19;4943602;29;20105;-79
2020/12/31 08:20:18;;;;;;;7.03;4.28;;;;;;;-0.15;89.83;96017.38;4949948;29;20110;-80
2020/12/31 08:22:53;;;;;;;7.43;3.60;;;;;;;-0.23;90.11;96023.50;4949762;29;20019;-80
2020/12/31 08:25:41;;;;;;;6.32;3.55;;;;;;;-0.17;90.12;96012.47;4950084;28;20155;-80
2020/12/31 08:28:07;;;;;;;6.00;3.47;;;;;;;-0.24;90.28;96009.94;4943553;29;20032;-81
2020/12/31 08:30:35;;;;;;;6.50;3.85;;;;;;;-0.21;90.80;96009.53;4943427;29;20053;-81
2020/12/31 08:33:04;;;;;;;5.10;3.20;;;;;;;-0.13;90.58;96015.38;4965785;28;20073;-80
2020/12/31 08:35:40;;;;;;;6.45;3.67;;;;;;;-0.05;89.87;96015.94;4949043;29;20081;-81
2020/12/31 08:38:09;;;;;;;5.80;3.22;;;;;;;-0.16;89.82;96011.44;4950722;29;20438;-80
2020/12/31 08:40:53;;;;;;;5.78;3.10;;;;;;;-0.26;90.23;96001.69;4965716;28;20530;-82
2020/12/31 08:43:21;;;;;;;6.47;2.97;;;;;;;-0.22;90.21;96002.84;4966391;28;20411;-80
2020/12/31 08:45:48;;;;;;;5.18;2.70;;;;;;;-0.10;89.96;96010.66;4926698;29;20034;-80
2020/12/31 08:48:16;;;;;;;5.63;3.05;;;;;;;-0.15;90.52;96007.91;4934500;29;20595;-80
2020/12/31 08:51:04;;;;;;;4.15;2.53;;;;;;;-0.15;90.29;96002.03;4965676;28;20034;-80
2020/12/31 08:53:31;;;;;;;4.18;3.05;;;;;;;-0.14;89.89;95999.25;4942038;29;20050;-80
2020/12/31 08:55:57;;;;;;;5.28;2.83;;;;;;;-0.10;90.79;96007.31;4947209;29;20035;-80
2020/12/31 08:58:31;;;;;;;4.13;2.55;;;;;;;-0.12;89.94;95999.03;4930765;29;20505;-83
2020/12/31 09:00:57;;;;;;;4.40;2.28;;;;;;;-0.02;90.26;96007.03;4932642;29;20034;-81
2020/12/31 09:03:24;;;;;;;5.00;2.85;;;;;;;0.03;89.57;96003.88;4949201;28;20055;-81
2020/12/31 09:06:00;;;;;;;3.47;1.92;;;;;;;-0.08;90.38;95998.44;4932841;29;20055;-80
2020/12/31 09:08:27;;;;;;;4.50;2.65;;;;;;;-0.06;89.85;96001.56;4926560;29;20038;-82
2020/12/31 09:11:04;;;;;;;3.40;2.10;;;;;;;-0.07;89.47;95999.19;4926545;29;20058;-81
2020/12/31 09:13:34;;;;;;;2.97;1.90;;;;;;;-0.02;89.88;96002.72;4951016;29;20106;-80
2020/12/31 09:16:13;;;;;;;3.85;2.08;;;;;;;-0.06;89.83;96005.91;4932572;29;20027;-84
2020/12/31 09:18:40;;;;;;;3.10;2.00;;;;;;;0.04;89.46;96003.69;4919195;29;20118;-81
2020/12/31 09:21:06;;;;;;;4.20;2.25;;;;;;;-0.02;89.64;95989.94;4928046;29;20027;-80
2020/12/31 09:23:32;;;;;;;3.25;2.03;;;;;;;0.05;89.79;95991.66;4934760;29;20526;-80
2020/12/31 09:25:59;;;;;;;2.97;1.90;;;;;;;0.04;90.09;95985.75;4946557;29;20118;-81
2020/12/31 09:28:25;;;;;;;3.03;1.85;;;;;;;0.11;89.01;95986.50;4933627;29;20031;-80
2020/12/31 09:30:52;;;;;;;2.35;1.50;;;;;;;0.13;89.65;95999.09;4907459;29;20023;-81
2020/12/31 09:33:22;;;;;;;2.70;1.73;;;;;;;0.12;89.51;95998.31;4949369;29;20034;-81
2020/12/31 09:35:47;;;;;;;4.70;2.05;;;;;;;0.16;89.26;95984.09;4948637;29;20027;-81
2020/12/31 09:38:15;;;;;;;3.58;1.55;;;;;;;0.10;90.18;95994.38;4943935;29;20360;-84
2020/12/31 09:40:41;;;;;;;2.70;1.75;;;;;;;0.12;88.96;95984.72;4948823;29;20031;-80
2020/12/31 09:43:07;;;;;;;2.58;1.50;;;;;;;0.08;89.23;95986.91;4949094;29;20035;-81
2020/12/31 09:45:38;;;;;;;3.28;1.67;;;;;;;0.04;89.74;95990.88;4944052;29;20086;-82
2020/12/31 09:48:19;;;;;;;3.05;1.50;;;;;;;0.04;89.92;95996.00;4947850;29;20061;-80
2020/12/31 09:50:44;;;;;;;4.28;2.17;;;;;;;0.08;89.93;95984.34;4950371;29;20050;-81
2020/12/31 09:53:10;;;;;;;3.40;2.08;;;;;;;0.10;89.96;95989.25;4942294;29;20390;-81
2020/12/31 09:55:36;;;;;;;3.97;2.08;;;;;;;0.06;90.29;95988.13;4920089;29;20090;-81
2020/12/31 09:58:02;;;;;;;3.35;2.35;;;;;;;0.14;89.67;95980.19;4950943;28;20050;-80
2020/12/31 10:00:27;;;;;;;2.65;1.77;;;;;;;0.07;90.04;95987.91;4963598;28;20618;-80
2020/12/31 10:02:54;;;;;;;3.42;1.90;;;;;;;0.16;89.78;95981.53;4949263;28;20055;-80
2020/12/31 10:05:20;;;;;;;3.97;2.08;;;;;;;0.08;89.21;95981.78;4927211;29;20049;-82
2020/12/31 10:07:46;;;;;;;2.80;1.85;;;;;;;0.06;89.77;95983.00;4947283;28;20542;-80
2020/12/31 10:10:12;;;;;;;4.95;2.67;;;;;;;0.10;90.00;95994.38;4945054;28;20035;-81
2020/12/31 10:12:37;;;;;;;2.92;1.90;;;;;;;0.01;90.15;95980.28;4935752;29;20394;-81
2020/12/31 10:15:03;;;;;;;3.05;2.00;;;;;;;0.02;90.50;95972.41;4951534;28;20054;-80
2020/12/31 10:17:28;;;;;;;4.28;2.33;;;;;;;0.06;90.84;95978.66;4935854;29;20035;-80
2020/12/31 10:19:56;;;;;;;2.95;1.63;;;;;;;0.10;90.04;95966.22;4954116;28;20218;-83
2020/12/31 10:22:22;;;;;;;2.58;1.80;;;;;;;0.13;89.94;95966.59;4934170;29;20490;-81
2020/12/31 10:24:48;;;;;;;3.75;1.83;;;;;;;0.11;90.18;95970.38;4951122;28;20042;-80
2020/12/31 10:27:15;;;;;;;3.80;2.17;;;;;;;0.15;90.12;95967.16;4935607;29;20426;-81
2020/12/31 10:29:40;;;;;;;3.10;2.22;;;;;;;0.18;90.15;95964.19;4953519;29;20068;-81
2020/12/31 10:32:06;;;;;;;3.88;1.80;;;;;;;0.17;89.76;95962.66;4951862;29;20039;-82
2020/12/31 10:34:32;;;;;;;3.42;1.63;;;;;;;0.18;89.53;95956.50;4944990;29;20023;-81
2020/12/31 10:36:58;;;;;;;3.47;1.65;;;;;;;0.25;89.39;95950.56;4929392;28;20092;-81
2020/12/31 10:39:24;;;;;;;2.97;1.95;;;;;;;0.11;90.01;95950.66;4966152;28;20063;-82
2020/12/31 10:41:51;;;;;;;4.07;1.90;;;;;;;0.23;89.91;95947.44;4926599;28;20105;-82
2020/12/31 10:44:18;;;;;;;3.47;2.00;;;;;;;0.26;89.21;95944.44;4943455;29;20027;-81
2020/12/31 10:46:43;;;;;;;3.47;2.00;;;;;;;0.31;88.96;95939.47;4934163;29;20043;-81
2020/12/31 10:49:09;;;;;;;3.05;1.60;;;;;;;0.33;89.59;95943.41;4950857;29;20050;-82
2020/12/31 10:51:36;;;;;;;2.60;1.80;;;;;;;0.36;89.28;95942.19;4963472;28;20439;-81
2020/12/31 10:54:02;;;;;;;3.97;2.58;;;;;;;0.27;89.25;95938.34;4950905;29;20047;-83
2020/12/31 10:56:28;;;;;;;4.40;2.30;;;;;;;0.17;89.69;95928.56;4920883;29;20051;-81
2020/12/31 10:58:57;;;;;;;3.60;2.00;;;;;;;0.15;90.05;95925.44;4967026;28;20038;-81
2020/12/31 11:01:23;;;;;;;3.80;2.22;;;;;;;0.26;89.91;95929.09;4966655;28;20443;-81
2020/12/31 11:03:49;;;;;;;5.38;2.10;;;;;;;0.17;90.23;95920.88;4940229;29;20082;-81
2020/12/31 11:06:27;;;;;;;2.70;1.70;;;;;;;0.20;90.17;95919.69;4948194;29;20080;-82
2020/12/31 11:08:55;;;;;;;3.65;2.10;;;;;;;0.27;90.04;95926.31;4935316;29;20039;-81
2020/12/31 11:11:30;;;;;;;4.20;2.13;;;;;;;0.25;89.81;95923.19;4937001;29;20035;-81
2020/12/31 11:13:55;;;;;;;3.58;2.15;;;;;;;0.31;89.50;95914.69;4900600;29;20024;-81
2020/12/31 11:16:21;;;;;;;4.18;2.78;;;;;;;0.43;90.11;95919.91;4966219;28;20498;-81
2020/12/31 11:18:47;;;;;;;2.80;2.10;;;;;;;0.40;89.85;95917.75;4951430;29;20035;-80
2020/12/31 11:21:14;;;;;;;4.05;2.50;;;;;;;0.44;89.34;95920.69;4949758;28;20034;-81
2020/12/31 11:23:40;;;;;;;4.35;2.30;;;;;;;0.43;89.69;95911.41;4966361;28;20031;-81
2020/12/31 11:26:13;;;;;;;3.38;2.33;;;;;;;0.36;89.76;95914.84;4939757;28;20410;-82
2020/12/31 11:28:39;;;;;;;3.35;1.90;;;;;;;0.40;89.09;95910.06;4940896;29;20036;-83
2020/12/31 11:31:09;;;;;;;3.92;1.98;;;;;;;0.32;89.37;95916.22;4930564;29;20038;-81
2020/12/31 11:33:46;;;;;;;2.92;1.98;;;;;;;0.34;89.41;95908.34;4970298;28;20585;-81
2020/12/31 11:36:13;;;;;;;2.88;1.90;;;;;;;0.27;90.34;95903.28;4948932;28;20162;-80
2020/12/31 11:38:39;;;;;;;2.85;2.10;;;;;;;0.25;90.57;95900.16;4943476;29;20391;-81
2020/12/31 11:41:08;;;;;;;5.00;2.22;;;;;;;0.27;90.43;95898.16;4925654;28;20093;-81
2020/12/31 11:43:34;;;;;;;2.67;1.77;;;;;;;0.40;89.77;95896.50;4938061;28;20182;-80